sensor_id;sensor_type;location;lat;lon;timestamp;P1;durP1;ratioP1;P2;durP2;ratioP2
40595;SDS011;26304;48.794;9.820;2023-04-16T00:03:38;0.60;;;0.60;;
40595;SDS011;26304;48.794;9.820;2023-04-16T00:09:20;0.70;;;0.70;;
40595;SDS011;26304;48.794;9.820;2023-04-16T00:15:03;0.65;;;0.65;;
40595;SDS011;26304;48.794;9.820;2023-04-16T00:20:47;0.60;;;0.60;;
40595;SDS011;26304;48.794;9.820;2023-04-16T00:26:30;0.85;;;0.70;;
40595;SDS011;26304;48.794;9.820;2023-04-16T00:32:12;0.57;;;0.52;;
40595;SDS011;26304;48.794;9.820;2023-04-16T00:37:56;0.52;;;0.52;;
40595;SDS011;26304;48.794;9.820;2023-04-16T00:43:39;0.80;;;0.80;;
40595;SDS011;26304;48.794;9.820;2023-04-16T00:49:21;0.50;;;0.47;;
40595;SDS011;26304;48.794;9.820;2023-04-16T00:55:06;0.50;;;0.50;;
40595;SDS011;26304;48.794;9.820;2023-04-16T01:00:53;0.50;;;0.50;;
40595;SDS011;26304;48.794;9.820;2023-04-16T01:06:36;0.47;;;0.47;;
40595;SDS011;26304;48.794;9.820;2023-04-16T01:12:20;0.45;;;0.45;;
40595;SDS011;26304;48.794;9.820;2023-04-16T01:18:02;0.60;;;0.60;;
40595;SDS011;26304;48.794;9.820;2023-04-16T01:23:55;0.47;;;0.40;;
40595;SDS011;26304;48.794;9.820;2023-04-16T01:29:37;0.60;;;0.60;;
40595;SDS011;26304;48.794;9.820;2023-04-16T01:35:19;0.57;;;0.57;;
40595;SDS011;26304;48.794;9.820;2023-04-16T01:41:03;0.55;;;0.50;;
40595;SDS011;26304;48.794;9.820;2023-04-16T01:46:46;0.60;;;0.60;;
40595;SDS011;26304;48.794;9.820;2023-04-16T01:52:28;0.40;;;0.40;;
40595;SDS011;26304;48.794;9.820;2023-04-16T01:58:12;0.43;;;0.40;;
40595;SDS011;26304;48.794;9.820;2023-04-16T02:03:54;0.90;;;0.45;;
40595;SDS011;26304;48.794;9.820;2023-04-16T02:09:38;0.55;;;0.43;;
40595;SDS011;26304;48.794;9.820;2023-04-16T02:15:23;0.47;;;0.47;;
40595;SDS011;26304;48.794;9.820;2023-04-16T02:21:05;0.40;;;0.40;;
40595;SDS011;26304;48.794;9.820;2023-04-16T02:26:48;0.50;;;0.50;;
40595;SDS011;26304;48.794;9.820;2023-04-16T02:32:32;0.50;;;0.50;;
40595;SDS011;26304;48.794;9.820;2023-04-16T02:38:14;0.40;;;0.40;;
40595;SDS011;26304;48.794;9.820;2023-04-16T02:43:56;0.40;;;0.40;;
40595;SDS011;26304;48.794;9.820;2023-04-16T02:49:40;0.40;;;0.40;;
40595;SDS011;26304;48.794;9.820;2023-04-16T02:55:23;0.40;;;0.40;;
40595;SDS011;26304;48.794;9.820;2023-04-16T03:01:05;0.35;;;0.30;;
40595;SDS011;26304;48.794;9.820;2023-04-16T03:06:49;0.40;;;0.40;;
40595;SDS011;26304;48.794;9.820;2023-04-16T03:12:31;0.40;;;0.40;;
40595;SDS011;26304;48.794;9.820;2023-04-16T03:18:14;0.25;;;0.25;;
40595;SDS011;26304;48.794;9.820;2023-04-16T03:23:57;0.30;;;0.30;;
40595;SDS011;26304;48.794;9.820;2023-04-16T03:29:40;0.30;;;0.30;;
40595;SDS011;26304;48.794;9.820;2023-04-16T03:35:22;0.30;;;0.30;;
40595;SDS011;26304;48.794;9.820;2023-04-16T03:41:06;0.40;;;0.40;;
40595;SDS011;26304;48.794;9.820;2023-04-16T03:46:48;0.30;;;0.30;;
40595;SDS011;26304;48.794;9.820;2023-04-16T03:52:31;0.30;;;0.30;;
40595;SDS011;26304;48.794;9.820;2023-04-16T03:58:14;0.30;;;0.30;;
40595;SDS011;26304;48.794;9.820;2023-04-16T04:03:57;0.28;;;0.28;;
40595;SDS011;26304;48.794;9.820;2023-04-16T04:09:39;0.32;;;0.32;;
40595;SDS011;26304;48.794;9.820;2023-04-16T04:15:23;0.32;;;0.32;;
40595;SDS011;26304;48.794;9.820;2023-04-16T04:21:06;0.40;;;0.35;;
40595;SDS011;26304;48.794;9.820;2023-04-16T04:26:49;0.40;;;0.40;;
40595;SDS011;26304;48.794;9.820;2023-04-16T04:32:32;0.38;;;0.38;;
40595;SDS011;26304;48.794;9.820;2023-04-16T04:38:15;0.40;;;0.40;;
40595;SDS011;26304;48.794;9.820;2023-04-16T04:44:01;0.40;;;0.40;;
40595;SDS011;26304;48.794;9.820;2023-04-16T04:49:44;0.20;;;0.20;;
40595;SDS011;26304;48.794;9.820;2023-04-16T04:55:27;0.40;;;0.40;;
40595;SDS011;26304;48.794;9.820;2023-04-16T05:01:09;0.32;;;0.32;;
40595;SDS011;26304;48.794;9.820;2023-04-16T05:06:53;0.30;;;0.28;;
40595;SDS011;26304;48.794;9.820;2023-04-16T05:12:36;0.75;;;0.30;;
40595;SDS011;26304;48.794;9.820;2023-04-16T05:18:19;0.43;;;0.30;;
40595;SDS011;26304;48.794;9.820;2023-04-16T05:24:03;0.30;;;0.30;;
40595;SDS011;26304;48.794;9.820;2023-04-16T05:29:47;0.32;;;0.30;;
40595;SDS011;26304;48.794;9.820;2023-04-16T05:35:30;0.20;;;0.20;;
40595;SDS011;26304;48.794;9.820;2023-04-16T05:41:13;0.43;;;0.30;;
40595;SDS011;26304;48.794;9.820;2023-04-16T05:46:56;0.40;;;0.20;;
40595;SDS011;26304;48.794;9.820;2023-04-16T05:52:38;0.30;;;0.30;;
40595;SDS011;26304;48.794;9.820;2023-04-16T05:58:22;0.30;;;0.30;;
40595;SDS011;26304;48.794;9.820;2023-04-16T06:04:04;0.32;;;0.30;;
40595;SDS011;26304;48.794;9.820;2023-04-16T06:09:47;0.30;;;0.30;;
40595;SDS011;26304;48.794;9.820;2023-04-16T06:15:30;0.35;;;0.35;;
40595;SDS011;26304;48.794;9.820;2023-04-16T06:21:13;1.15;;;0.63;;
40595;SDS011;26304;48.794;9.820;2023-04-16T06:26:55;0.32;;;0.32;;
40595;SDS011;26304;48.794;9.820;2023-04-16T06:32:39;1.05;;;0.60;;
40595;SDS011;26304;48.794;9.820;2023-04-16T06:38:21;1.67;;;0.50;;
40595;SDS011;26304;48.794;9.820;2023-04-16T06:44:04;0.73;;;0.40;;
40595;SDS011;26304;48.794;9.820;2023-04-16T06:49:48;1.48;;;0.68;;
40595;SDS011;26304;48.794;9.820;2023-04-16T06:55:30;0.85;;;0.70;;
40595;SDS011;26304;48.794;9.820;2023-04-16T07:01:12;2.17;;;1.00;;
40595;SDS011;26304;48.794;9.820;2023-04-16T07:06:56;1.65;;;0.70;;
40595;SDS011;26304;48.794;9.820;2023-04-16T07:12:39;1.08;;;0.85;;
40595;SDS011;26304;48.794;9.820;2023-04-16T07:18:21;2.17;;;0.80;;
40595;SDS011;26304;48.794;9.820;2023-04-16T07:24:05;1.95;;;0.88;;
40595;SDS011;26304;48.794;9.820;2023-04-16T07:29:47;1.95;;;0.90;;
40595;SDS011;26304;48.794;9.820;2023-04-16T07:35:30;2.80;;;1.10;;
40595;SDS011;26304;48.794;9.820;2023-04-16T07:41:14;3.17;;;1.17;;
40595;SDS011;26304;48.794;9.820;2023-04-16T07:46:57;3.70;;;1.00;;
40595;SDS011;26304;48.794;9.820;2023-04-16T07:52:39;1.80;;;1.00;;
40595;SDS011;26304;48.794;9.820;2023-04-16T07:58:24;3.20;;;1.25;;
40595;SDS011;26304;48.794;9.820;2023-04-16T08:04:07;2.88;;;1.27;;
40595;SDS011;26304;48.794;9.820;2023-04-16T08:09:49;3.00;;;1.45;;
40595;SDS011;26304;48.794;9.820;2023-04-16T08:15:34;3.90;;;1.27;;
40595;SDS011;26304;48.794;9.820;2023-04-16T08:21:17;1.48;;;1.17;;
40595;SDS011;26304;48.794;9.820;2023-04-16T08:26:59;1.58;;;1.10;;
40595;SDS011;26304;48.794;9.820;2023-04-16T08:32:43;3.90;;;1.20;;
40595;SDS011;26304;48.794;9.820;2023-04-16T08:38:25;1.85;;;1.00;;
40595;SDS011;26304;48.794;9.820;2023-04-16T08:44:08;2.55;;;1.33;;
40595;SDS011;26304;48.794;9.820;2023-04-16T08:49:56;2.15;;;1.45;;
40595;SDS011;26304;48.794;9.820;2023-04-16T08:55:42;3.25;;;1.20;;
40595;SDS011;26304;48.794;9.820;2023-04-16T09:01:28;3.65;;;1.27;;
40595;SDS011;26304;48.794;9.820;2023-04-16T09:07:12;2.22;;;1.42;;
40595;SDS011;26304;48.794;9.820;2023-04-16T09:12:57;6.90;;;1.30;;
40595;SDS011;26304;48.794;9.820;2023-04-16T09:18:39;2.20;;;1.20;;
40595;SDS011;26304;48.794;9.820;2023-04-16T09:24:23;2.60;;;1.55;;
40595;SDS011;26304;48.794;9.820;2023-04-16T09:30:21;1.33;;;1.15;;
40595;SDS011;26304;48.794;9.820;2023-04-16T09:36:05;1.45;;;1.35;;
40595;SDS011;26304;48.794;9.820;2023-04-16T09:41:51;1.05;;;1.00;;
40595;SDS011;26304;48.794;9.820;2023-04-16T09:47:39;1.95;;;1.10;;
40595;SDS011;26304;48.794;9.820;2023-04-16T09:53:23;2.03;;;1.38;;
40595;SDS011;26304;48.794;9.820;2023-04-16T09:59:07;1.80;;;1.20;;
40595;SDS011;26304;48.794;9.820;2023-04-16T10:04:57;1.17;;;1.10;;
40595;SDS011;26304;48.794;9.820;2023-04-16T10:10:42;2.13;;;1.50;;
40595;SDS011;26304;48.794;9.820;2023-04-16T10:16:27;1.90;;;1.20;;
40595;SDS011;26304;48.794;9.820;2023-04-16T10:22:10;2.67;;;1.25;;
40595;SDS011;26304;48.794;9.820;2023-04-16T10:27:53;5.80;;;1.40;;
40595;SDS011;26304;48.794;9.820;2023-04-16T10:33:39;2.83;;;1.63;;
40595;SDS011;26304;48.794;9.820;2023-04-16T10:39:23;5.97;;;1.73;;
40595;SDS011;26304;48.794;9.820;2023-04-16T10:45:09;2.90;;;1.40;;
40595;SDS011;26304;48.794;9.820;2023-04-16T10:50:56;2.08;;;1.30;;
40595;SDS011;26304;48.794;9.820;2023-04-16T10:56:39;3.10;;;1.40;;
40595;SDS011;26304;48.794;9.820;2023-04-16T11:02:23;2.50;;;1.38;;
40595;SDS011;26304;48.794;9.820;2023-04-16T11:08:13;2.20;;;1.65;;
40595;SDS011;26304;48.794;9.820;2023-04-16T11:13:56;4.03;;;1.50;;
40595;SDS011;26304;48.794;9.820;2023-04-16T11:19:40;2.70;;;1.80;;
40595;SDS011;26304;48.794;9.820;2023-04-16T11:25:25;1.50;;;1.40;;
40595;SDS011;26304;48.794;9.820;2023-04-16T11:31:10;2.88;;;1.40;;
40595;SDS011;26304;48.794;9.820;2023-04-16T11:36:53;4.72;;;1.60;;
40595;SDS011;26304;48.794;9.820;2023-04-16T11:42:37;1.80;;;1.38;;
40595;SDS011;26304;48.794;9.820;2023-04-16T11:48:20;3.28;;;1.30;;
40595;SDS011;26304;48.794;9.820;2023-04-16T11:54:03;1.40;;;1.30;;
40595;SDS011;26304;48.794;9.820;2023-04-16T11:59:47;2.72;;;1.50;;
40595;SDS011;26304;48.794;9.820;2023-04-16T12:05:29;1.65;;;1.50;;
40595;SDS011;26304;48.794;9.820;2023-04-16T12:11:14;1.38;;;1.15;;
40595;SDS011;26304;48.794;9.820;2023-04-16T12:23:01;2.05;;;1.40;;
40595;SDS011;26304;48.794;9.820;2023-04-16T12:28:44;3.15;;;1.70;;
40595;SDS011;26304;48.794;9.820;2023-04-16T12:34:28;4.07;;;1.60;;
40595;SDS011;26304;48.794;9.820;2023-04-16T12:40:10;1.70;;;1.60;;
40595;SDS011;26304;48.794;9.820;2023-04-16T12:45:53;1.85;;;1.63;;
40595;SDS011;26304;48.794;9.820;2023-04-16T12:51:37;2.35;;;1.58;;
40595;SDS011;26304;48.794;9.820;2023-04-16T12:57:19;3.22;;;2.00;;
40595;SDS011;26304;48.794;9.820;2023-04-16T13:03:03;2.25;;;2.05;;
40595;SDS011;26304;48.794;9.820;2023-04-16T13:08:47;3.17;;;2.50;;
40595;SDS011;26304;48.794;9.820;2023-04-16T13:14:29;4.45;;;2.78;;
40595;SDS011;26304;48.794;9.820;2023-04-16T13:20:12;3.53;;;2.90;;
40595;SDS011;26304;48.794;9.820;2023-04-16T13:25:56;4.10;;;3.03;;
40595;SDS011;26304;48.794;9.820;2023-04-16T13:31:38;5.65;;;3.20;;
40595;SDS011;26304;48.794;9.820;2023-04-16T13:37:21;4.40;;;3.30;;
40595;SDS011;26304;48.794;9.820;2023-04-16T13:43:05;6.38;;;3.72;;
40595;SDS011;26304;48.794;9.820;2023-04-16T13:48:47;3.55;;;3.25;;
40595;SDS011;26304;48.794;9.820;2023-04-16T13:54:29;5.22;;;3.47;;
40595;SDS011;26304;48.794;9.820;2023-04-16T14:00:14;5.18;;;4.25;;
40595;SDS011;26304;48.794;9.820;2023-04-16T14:05:57;7.32;;;3.60;;
40595;SDS011;26304;48.794;9.820;2023-04-16T14:11:40;5.75;;;4.63;;
40595;SDS011;26304;48.794;9.820;2023-04-16T14:17:24;4.82;;;4.32;;
40595;SDS011;26304;48.794;9.820;2023-04-16T14:23:06;7.47;;;5.25;;
40595;SDS011;26304;48.794;9.820;2023-04-16T14:28:49;4.28;;;3.88;;
40595;SDS011;26304;48.794;9.820;2023-04-16T14:34:33;4.60;;;4.20;;
40595;SDS011;26304;48.794;9.820;2023-04-16T14:40:15;6.50;;;4.00;;
40595;SDS011;26304;48.794;9.820;2023-04-16T14:45:58;4.18;;;3.65;;
40595;SDS011;26304;48.794;9.820;2023-04-16T14:51:42;5.13;;;4.07;;
40595;SDS011;26304;48.794;9.820;2023-04-16T14:57:26;4.65;;;3.75;;
40595;SDS011;26304;48.794;9.820;2023-04-16T15:03:08;3.83;;;3.47;;
40595;SDS011;26304;48.794;9.820;2023-04-16T15:08:52;4.05;;;3.63;;
40595;SDS011;26304;48.794;9.820;2023-04-16T15:14:34;4.38;;;3.47;;
40595;SDS011;26304;48.794;9.820;2023-04-16T15:20:17;5.90;;;3.72;;
40595;SDS011;26304;48.794;9.820;2023-04-16T15:26:01;5.20;;;2.95;;
40595;SDS011;26304;48.794;9.820;2023-04-16T15:31:43;3.05;;;2.85;;
40595;SDS011;26304;48.794;9.820;2023-04-16T15:37:26;5.18;;;3.20;;
40595;SDS011;26304;48.794;9.820;2023-04-16T15:43:09;3.38;;;3.08;;
40595;SDS011;26304;48.794;9.820;2023-04-16T15:48:52;3.95;;;3.53;;
40595;SDS011;26304;48.794;9.820;2023-04-16T15:54:34;4.97;;;2.67;;
40595;SDS011;26304;48.794;9.820;2023-04-16T16:00:18;3.15;;;2.85;;
40595;SDS011;26304;48.794;9.820;2023-04-16T16:06:01;5.05;;;3.05;;
40595;SDS011;26304;48.794;9.820;2023-04-16T16:11:48;5.82;;;4.00;;
40595;SDS011;26304;48.794;9.820;2023-04-16T16:17:32;4.07;;;3.67;;
40595;SDS011;26304;48.794;9.820;2023-04-16T16:23:14;5.43;;;3.75;;
40595;SDS011;26304;48.794;9.820;2023-04-16T16:28:56;4.50;;;3.40;;
40595;SDS011;26304;48.794;9.820;2023-04-16T16:34:40;6.93;;;3.75;;
40595;SDS011;26304;48.794;9.820;2023-04-16T16:40:23;5.40;;;3.22;;
40595;SDS011;26304;48.794;9.820;2023-04-16T16:46:06;5.07;;;3.45;;
40595;SDS011;26304;48.794;9.820;2023-04-16T16:51:52;5.63;;;3.28;;
40595;SDS011;26304;48.794;9.820;2023-04-16T16:57:35;5.50;;;3.65;;
40595;SDS011;26304;48.794;9.820;2023-04-16T17:03:18;5.55;;;3.53;;
40595;SDS011;26304;48.794;9.820;2023-04-16T17:09:02;4.25;;;3.30;;
40595;SDS011;26304;48.794;9.820;2023-04-16T17:14:48;5.32;;;3.70;;
40595;SDS011;26304;48.794;9.820;2023-04-16T17:20:30;4.95;;;3.00;;
40595;SDS011;26304;48.794;9.820;2023-04-16T17:26:15;3.70;;;2.88;;
40595;SDS011;26304;48.794;9.820;2023-04-16T17:31:57;3.28;;;2.97;;
40595;SDS011;26304;48.794;9.820;2023-04-16T17:37:39;4.63;;;3.10;;
40595;SDS011;26304;48.794;9.820;2023-04-16T17:43:23;2.70;;;2.38;;
40595;SDS011;26304;48.794;9.820;2023-04-16T17:49:06;3.80;;;2.67;;
40595;SDS011;26304;48.794;9.820;2023-04-16T17:54:48;2.53;;;2.33;;
40595;SDS011;26304;48.794;9.820;2023-04-16T18:00:34;3.53;;;3.08;;
40595;SDS011;26304;48.794;9.820;2023-04-16T18:06:17;3.63;;;2.92;;
40595;SDS011;26304;48.794;9.820;2023-04-16T18:12:00;4.00;;;2.42;;
40595;SDS011;26304;48.794;9.820;2023-04-16T18:17:44;3.95;;;2.70;;
40595;SDS011;26304;48.794;9.820;2023-04-16T18:23:26;3.97;;;2.83;;
40595;SDS011;26304;48.794;9.820;2023-04-16T18:29:09;2.95;;;2.58;;
40595;SDS011;26304;48.794;9.820;2023-04-16T18:34:52;3.05;;;2.70;;
40595;SDS011;26304;48.794;9.820;2023-04-16T18:40:35;4.72;;;2.70;;
40595;SDS011;26304;48.794;9.820;2023-04-16T18:46:18;3.45;;;2.67;;
40595;SDS011;26304;48.794;9.820;2023-04-16T18:52:02;2.78;;;2.22;;
40595;SDS011;26304;48.794;9.820;2023-04-16T18:57:44;3.28;;;2.60;;
40595;SDS011;26304;48.794;9.820;2023-04-16T19:03:26;2.88;;;2.28;;
40595;SDS011;26304;48.794;9.820;2023-04-16T19:09:11;2.30;;;2.10;;
40595;SDS011;26304;48.794;9.820;2023-04-16T19:14:54;6.47;;;2.70;;
40595;SDS011;26304;48.794;9.820;2023-04-16T19:20:36;2.92;;;2.22;;
40595;SDS011;26304;48.794;9.820;2023-04-16T19:26:20;3.05;;;2.08;;
40595;SDS011;26304;48.794;9.820;2023-04-16T19:32:03;3.40;;;2.83;;
40595;SDS011;26304;48.794;9.820;2023-04-16T19:37:45;3.17;;;2.88;;
40595;SDS011;26304;48.794;9.820;2023-04-16T19:43:29;3.28;;;2.42;;
40595;SDS011;26304;48.794;9.820;2023-04-16T19:49:11;1.95;;;1.85;;
40595;SDS011;26304;48.794;9.820;2023-04-16T19:54:54;2.28;;;2.17;;
40595;SDS011;26304;48.794;9.820;2023-04-16T20:00:38;2.28;;;2.17;;
40595;SDS011;26304;48.794;9.820;2023-04-16T20:06:21;2.08;;;1.98;;
40595;SDS011;26304;48.794;9.820;2023-04-16T20:12:05;2.53;;;1.95;;
40595;SDS011;26304;48.794;9.820;2023-04-16T20:17:49;2.00;;;1.90;;
40595;SDS011;26304;48.794;9.820;2023-04-16T20:23:32;1.70;;;1.60;;
40595;SDS011;26304;48.794;9.820;2023-04-16T20:29:14;1.60;;;1.50;;
40595;SDS011;26304;48.794;9.820;2023-04-16T20:34:58;2.60;;;1.63;;
40595;SDS011;26304;48.794;9.820;2023-04-16T20:40:41;1.63;;;1.52;;
40595;SDS011;26304;48.794;9.820;2023-04-16T20:46:27;1.88;;;1.77;;
40595;SDS011;26304;48.794;9.820;2023-04-16T20:52:11;1.92;;;1.83;;
40595;SDS011;26304;48.794;9.820;2023-04-16T20:57:54;1.48;;;1.40;;
40595;SDS011;26304;48.794;9.820;2023-04-16T21:03:36;1.30;;;1.20;;
40595;SDS011;26304;48.794;9.820;2023-04-16T21:09:20;1.60;;;1.50;;
40595;SDS011;26304;48.794;9.820;2023-04-16T21:15:03;1.60;;;1.50;;
40595;SDS011;26304;48.794;9.820;2023-04-16T21:20:46;1.70;;;1.60;;
40595;SDS011;26304;48.794;9.820;2023-04-16T21:26:30;1.63;;;1.52;;
40595;SDS011;26304;48.794;9.820;2023-04-16T21:32:12;1.15;;;1.15;;
40595;SDS011;26304;48.794;9.820;2023-04-16T21:37:54;1.45;;;1.35;;
40595;SDS011;26304;48.794;9.820;2023-04-16T21:43:38;1.40;;;1.30;;
40595;SDS011;26304;48.794;9.820;2023-04-16T21:49:20;1.48;;;1.40;;
40595;SDS011;26304;48.794;9.820;2023-04-16T21:55:03;1.38;;;1.27;;
40595;SDS011;26304;48.794;9.820;2023-04-16T22:00:49;1.27;;;1.27;;
40595;SDS011;26304;48.794;9.820;2023-04-16T22:06:31;1.50;;;1.40;;
40595;SDS011;26304;48.794;9.820;2023-04-16T22:12:14;1.45;;;1.35;;
40595;SDS011;26304;48.794;9.820;2023-04-16T22:17:57;1.40;;;1.30;;
40595;SDS011;26304;48.794;9.820;2023-04-16T22:23:40;1.10;;;1.10;;
40595;SDS011;26304;48.794;9.820;2023-04-16T22:29:22;1.60;;;1.50;;
40595;SDS011;26304;48.794;9.820;2023-04-16T22:35:06;1.10;;;1.10;;
40595;SDS011;26304;48.794;9.820;2023-04-16T22:40:49;1.00;;;1.00;;
40595;SDS011;26304;48.794;9.820;2023-04-16T22:46:32;1.10;;;1.10;;
40595;SDS011;26304;48.794;9.820;2023-04-16T22:52:16;1.08;;;1.08;;
40595;SDS011;26304;48.794;9.820;2023-04-16T22:57:58;1.25;;;1.25;;
40595;SDS011;26304;48.794;9.820;2023-04-16T23:03:41;1.10;;;1.10;;
40595;SDS011;26304;48.794;9.820;2023-04-16T23:09:24;1.38;;;1.27;;
40595;SDS011;26304;48.794;9.820;2023-04-16T23:15:07;1.30;;;1.20;;
40595;SDS011;26304;48.794;9.820;2023-04-16T23:20:50;1.10;;;1.10;;
40595;SDS011;26304;48.794;9.820;2023-04-16T23:26:34;1.05;;;1.05;;
40595;SDS011;26304;48.794;9.820;2023-04-16T23:32:16;1.27;;;1.17;;
40595;SDS011;26304;48.794;9.820;2023-04-16T23:37:59;1.00;;;1.00;;
40595;SDS011;26304;48.794;9.820;2023-04-16T23:43:42;0.98;;;0.98;;
40595;SDS011;26304;48.794;9.820;2023-04-16T23:49:25;0.90;;;0.90;;
40595;SDS011;26304;48.794;9.820;2023-04-16T23:55:10;0.85;;;0.80;;
